Time;durP1;ratioP1;P1;durP2;ratioP2;P2;SDS_P1;SDS_P2;PMS_P1;PMS_P2;Temp;Humidity;BMP_temperature;BMP_pressure;BME280_temperature;BME280_humidity;BME280_pressure;Samples;Min_cycle;Max_cycle;Signal;HPM_P1;HPM_P2
2023/06/05 00:02:05;;;;;;;8.43;1.90;;;;;;;;;;7379091;19;19990;-70
2023/06/05 00:04:30;;;;;;;6.18;1.70;;;;;;;;;;7400507;19;20011;-69
2023/06/05 00:07:00;;;;;;;8.27;1.70;;;;;;;;;;7375398;19;20002;-69
2023/06/05 00:09:25;;;;;;;3.90;1.60;;;;;;;;;;7370896;19;20418;-69
2023/06/05 00:11:51;;;;;;;5.22;1.70;;;;;;;;;;7370549;19;20006;-70
2023/06/05 00:14:16;;;;;;;6.18;1.88;;;;;;;;;;7369565;19;20002;-69
2023/06/05 00:16:42;;;;;;;4.95;1.50;;;;;;;;;;7390002;19;20019;-68
2023/06/05 00:19:07;;;;;;;5.60;1.85;;;;;;;;;;7366684;19;20006;-69
2023/06/05 00:21:33;;;;;;;5.88;1.90;;;;;;;;;;7369180;19;20531;-69
2023/06/05 00:23:58;;;;;;;4.60;1.63;;;;;;;;;;7370558;19;20007;-68
2023/06/05 00:26:23;;;;;;;4.15;1.80;;;;;;;;;;7365538;19;20018;-68
2023/06/05 00:28:49;;;;;;;4.45;1.80;;;;;;;;;;7387355;19;20006;-69
2023/06/05 00:31:14;;;;;;;5.95;1.60;;;;;;;;;;7368160;19;20373;-69
2023/06/05 00:33:40;;;;;;;5.78;1.70;;;;;;;;;;7367492;19;20015;-69
2023/06/05 00:36:05;;;;;;;4.70;2.10;;;;;;;;;;7367990;19;20564;-68
2023/06/05 00:38:31;;;;;;;5.68;1.80;;;;;;;;;;7365536;19;20444;-68
2023/06/05 00:40:56;;;;;;;6.05;1.85;;;;;;;;;;7389671;19;19998;-68
2023/06/05 00:43:22;;;;;;;8.20;2.08;;;;;;;;;;7367808;19;20013;-68
2023/06/05 00:45:47;;;;;;;8.40;1.90;;;;;;;;;;7366613;19;20006;-69
2023/06/05 00:48:13;;;;;;;5.43;1.90;;;;;;;;;;7366180;19;20375;-68
2023/06/05 00:50:39;;;;;;;4.13;1.80;;;;;;;;;;7365823;19;20674;-69
2023/06/05 00:53:06;;;;;;;7.90;1.80;;;;;;;;;;7368435;19;20003;-69
2023/06/05 00:55:32;;;;;;;6.15;1.80;;;;;;;;;;7390210;19;20068;-68
2023/06/05 00:57:58;;;;;;;5.13;1.70;;;;;;;;;;7365940;19;20014;-68
2023/06/05 01:00:25;;;;;;;7.15;2.10;;;;;;;;;;7366056;19;20066;-69
2023/06/05 01:02:53;;;;;;;14.30;2.58;;;;;;;;;;7367179;19;20010;-70
2023/06/05 01:05:19;;;;;;;9.32;2.10;;;;;;;;;;7367085;19;20015;-69
2023/06/05 01:07:47;;;;;;;14.43;2.63;;;;;;;;;;7387974;19;20010;-69
2023/06/05 01:10:13;;;;;;;9.82;2.10;;;;;;;;;;7366750;19;20015;-68
2023/06/05 01:12:43;;;;;;;4.28;1.70;;;;;;;;;;7368030;19;20033;-69
2023/06/05 01:15:09;;;;;;;7.20;2.03;;;;;;;;;;7369170;19;20007;-68
2023/06/05 01:17:35;;;;;;;3.47;1.77;;;;;;;;;;7369271;19;20027;-69
2023/06/05 01:20:07;;;;;;;4.35;1.83;;;;;;;;;;7376841;19;20007;-69
2023/06/05 01:22:34;;;;;;;4.75;1.65;;;;;;;;;;7396260;19;20010;-69
2023/06/05 01:25:01;;;;;;;4.85;1.63;;;;;;;;;;7368156;19;20018;-69
2023/06/05 01:27:35;;;;;;;2.13;1.60;;;;;;;;;;7365129;19;20035;-69
2023/06/05 01:30:14;;;;;;;5.88;1.83;;;;;;;;;;7365035;19;20080;-69
2023/06/05 01:32:54;;;;;;;5.35;1.80;;;;;;;;;;7365597;19;20036;-69
2023/06/05 01:35:27;;;;;;;5.68;1.92;;;;;;;;;;7365923;19;19999;-69
2023/06/05 01:37:54;;;;;;;3.17;1.63;;;;;;;;;;7387659;19;20711;-69
2023/06/05 01:40:22;;;;;;;4.70;1.38;;;;;;;;;;7372458;19;20077;-69
2023/06/05 01:42:48;;;;;;;3.03;1.77;;;;;;;;;;7373606;19;20355;-69
2023/06/05 01:45:15;;;;;;;3.13;1.70;;;;;;;;;;7373401;19;20075;-69
2023/06/05 01:47:41;;;;;;;3.20;1.80;;;;;;;;;;7372376;19;20025;-69
2023/06/05 01:50:08;;;;;;;3.30;1.60;;;;;;;;;;7372384;19;20015;-69
2023/06/05 01:52:34;;;;;;;6.43;1.83;;;;;;;;;;7395781;19;20019;-69
2023/06/05 01:55:01;;;;;;;3.85;1.48;;;;;;;;;;7373041;19;20480;-68
2023/06/05 01:57:28;;;;;;;3.15;1.60;;;;;;;;;;7372138;19;20010;-69
2023/06/05 01:59:54;;;;;;;3.90;1.95;;;;;;;;;;7374204;19;20010;-68
2023/06/05 02:02:19;;;;;;;7.18;1.75;;;;;;;;;;7376391;19;20046;-69
2023/06/05 02:04:47;;;;;;;2.15;1.45;;;;;;;;;;7398107;19;20001;-69
2023/06/05 02:07:14;;;;;;;4.35;1.80;;;;;;;;;;7372482;19;20014;-68
2023/06/05 02:09:40;;;;;;;2.17;1.40;;;;;;;;;;7373028;19;20355;-68
2023/06/05 02:12:06;;;;;;;3.00;1.55;;;;;;;;;;7375127;19;20010;-69
2023/06/05 02:14:37;;;;;;;2.63;1.55;;;;;;;;;;7376911;19;20002;-68
2023/06/05 02:17:04;;;;;;;;;;;;;;;;;;7375731;19;20015;-67
2023/06/05 02:19:30;;;;;;;2.85;1.70;;;;;;;;;;7396029;19;20572;-68
2023/06/05 02:21:55;;;;;;;3.65;2.00;;;;;;;;;;7374950;19;20019;-69
2023/06/05 02:24:20;;;;;;;6.45;1.70;;;;;;;;;;7376495;19;20393;-69
2023/06/05 02:26:46;;;;;;;3.30;1.60;;;;;;;;;;7373076;19;20014;-68
2023/06/05 02:29:12;;;;;;;4.93;1.80;;;;;;;;;;7375768;19;20010;-67
2023/06/05 02:31:38;;;;;;;2.45;1.63;;;;;;;;;;7398305;19;20014;-69
2023/06/05 02:34:03;;;;;;;3.60;1.70;;;;;;;;;;7373953;19;20441;-69
2023/06/05 02:36:32;;;;;;;2.65;1.38;;;;;;;;;;7374798;19;20379;-69
2023/06/05 02:39:04;;;;;;;4.35;1.70;;;;;;;;;;7373864;19;20014;-69
2023/06/05 02:41:29;;;;;;;2.88;1.63;;;;;;;;;;7373298;19;20010;-69
2023/06/05 02:43:55;;;;;;;8.02;1.77;;;;;;;;;;7396042;19;20052;-69
2023/06/05 02:46:24;;;;;;;3.60;1.60;;;;;;;;;;7372837;19;20069;-69
2023/06/05 02:48:53;;;;;;;4.15;1.80;;;;;;;;;;7371660;19;20638;-69
2023/06/05 02:51:18;;;;;;;3.28;1.80;;;;;;;;;;7372300;19;20014;-69
2023/06/05 02:53:43;;;;;;;3.15;1.70;;;;;;;;;;7373701;19;20029;-68
2023/06/05 02:56:10;;;;;;;4.70;1.80;;;;;;;;;;7374631;19;20438;-68
2023/06/05 02:58:35;;;;;;;4.95;2.00;;;;;;;;;;7394517;19;20017;-68
2023/06/05 03:01:06;;;;;;;2.97;1.60;;;;;;;;;;7372578;19;20002;-68
2023/06/05 03:03:32;;;;;;;4.05;1.70;;;;;;;;;;7372270;19;20015;-69
2023/06/05 03:06:04;;;;;;;3.63;1.50;;;;;;;;;;7370971;19;20524;-69
2023/06/05 03:08:30;;;;;;;7.65;1.98;;;;;;;;;;7369345;19;20074;-69
2023/06/05 03:10:55;;;;;;;4.25;1.90;;;;;;;;;;7390955;19;20038;-68
2023/06/05 03:13:21;;;;;;;4.00;1.80;;;;;;;;;;7371203;19;20014;-68
2023/06/05 03:15:46;;;;;;;9.45;1.88;;;;;;;;;;7371515;19;20020;-68
2023/06/05 03:18:11;;;;;;;3.92;1.80;;;;;;;;;;7374243;19;20052;-68
2023/06/05 03:20:38;;;;;;;7.72;1.80;;;;;;;;;;7374819;19;20006;-71
2023/06/05 03:23:03;;;;;;;7.93;1.85;;;;;;;;;;7372509;19;20540;-69
2023/06/05 03:25:28;;;;;;;5.88;1.90;;;;;;;;;;7390485;19;20018;-68
2023/06/05 03:27:54;;;;;;;3.70;1.90;;;;;;;;;;7365137;19;20132;-68
2023/06/05 03:30:19;;;;;;;4.45;1.73;;;;;;;;;;7368640;19;20676;-69
2023/06/05 03:32:47;;;;;;;9.90;2.08;;;;;;;;;;7371830;19;20061;-69
2023/06/05 03:35:12;;;;;;;5.25;1.83;;;;;;;;;;7369719;19;20040;-69
2023/06/05 03:37:37;;;;;;;2.83;1.75;;;;;;;;;;7389469;19;20002;-69
2023/06/05 03:40:04;;;;;;;5.28;2.08;;;;;;;;;;7369795;19;20002;-68
2023/06/05 03:42:30;;;;;;;4.43;1.77;;;;;;;;;;7370685;19;20006;-68
2023/06/05 03:44:55;;;;;;;5.32;2.10;;;;;;;;;;7369557;19;20056;-69
2023/06/05 03:47:21;;;;;;;5.35;1.80;;;;;;;;;;7369954;19;20010;-69
2023/06/05 03:49:47;;;;;;;8.07;3.08;;;;;;;;;;7392162;19;20007;-68
2023/06/05 03:52:14;;;;;;;4.75;1.80;;;;;;;;;;7369692;19;20066;-69
2023/06/05 03:54:40;;;;;;;6.28;2.42;;;;;;;;;;7369224;19;20396;-69
2023/06/05 03:57:09;;;;;;;4.65;2.20;;;;;;;;;;7369890;19;20027;-69
2023/06/05 03:59:34;;;;;;;8.90;2.30;;;;;;;;;;7368073;19;20036;-69
2023/06/05 04:02:00;;;;;;;5.80;2.17;;;;;;;;;;7378843;19;20763;-70
2023/06/05 04:04:25;;;;;;;10.60;2.28;;;;;;;;;;7388329;19;20024;-69
2023/06/05 04:06:54;;;;;;;5.05;2.17;;;;;;;;;;7368309;19;20044;-69
2023/06/05 04:09:19;;;;;;;14.38;2.22;;;;;;;;;;7368540;19;20010;-69
2023/06/05 04:11:45;;;;;;;4.28;2.00;;;;;;;;;;7368774;19;20010;-69
2023/06/05 04:14:11;;;;;;;4.40;2.05;;;;;;;;;;7368475;19;20017;-69
2023/06/05 04:16:42;;;;;;;4.53;2.00;;;;;;;;;;7389741;19;20011;-69
2023/06/05 04:19:12;;;;;;;5.45;2.25;;;;;;;;;;7367461;19;20022;-69
2023/06/05 04:21:38;;;;;;;7.78;2.22;;;;;;;;;;7367250;19;20010;-69
2023/06/05 04:24:09;;;;;;;6.40;1.98;;;;;;;;;;7368895;19;20461;-68
2023/06/05 04:26:36;;;;;;;7.40;2.38;;;;;;;;;;7366576;19;20021;-68
2023/06/05 04:29:03;;;;;;;6.80;2.30;;;;;;;;;;7367749;19;20279;-70
2023/06/05 04:31:32;;;;;;;3.80;2.20;;;;;;;;;;7390766;19;20466;-69
2023/06/05 04:33:57;;;;;;;3.78;1.95;;;;;;;;;;7367981;19;20385;-69
2023/06/05 04:36:24;;;;;;;4.50;2.03;;;;;;;;;;7369357;19;20327;-69
2023/06/05 04:38:49;;;;;;;5.07;2.30;;;;;;;;;;7367656;19;20018;-69
2023/06/05 04:41:15;;;;;;;5.28;2.08;;;;;;;;;;7368146;19;20019;-69
2023/06/05 04:43:40;;;;;;;6.05;1.80;;;;;;;;;;7388349;19;20013;-69
2023/06/05 04:46:06;;;;;;;2.85;1.80;;;;;;;;;;7364796;19;20006;-69
2023/06/05 04:48:31;;;;;;;4.10;1.80;;;;;;;;;;7359647;19;20147;-69
2023/06/05 04:50:56;;;;;;;5.78;2.00;;;;;;;;;;7366984;19;20044;-68
2023/06/05 04:53:22;;;;;;;6.82;1.98;;;;;;;;;;7369161;19;20015;-68
2023/06/05 04:55:48;;;;;;;4.72;1.95;;;;;;;;;;7389291;19;20480;-68
2023/06/05 04:58:15;;;;;;;8.60;2.78;;;;;;;;;;7365507;19;20010;-68
2023/06/05 05:00:42;;;;;;;7.18;1.80;;;;;;;;;;7367549;19;20480;-69
2023/06/05 05:03:08;;;;;;;6.65;2.20;;;;;;;;;;7359808;19;20077;-68
2023/06/05 05:05:34;;;;;;;4.22;1.70;;;;;;;;;;7364791;19;20069;-69
2023/06/05 05:08:01;;;;;;;2.90;1.92;;;;;;;;;;7371788;19;20002;-70
2023/06/05 05:10:26;;;;;;;2.65;1.80;;;;;;;;;;7384128;19;20077;-70
2023/06/05 05:12:51;;;;;;;5.47;2.10;;;;;;;;;;7362086;19;20452;-69
2023/06/05 05:15:17;;;;;;;5.25;1.90;;;;;;;;;;7365887;19;20014;-68
2023/06/05 05:17:42;;;;;;;3.88;1.70;;;;;;;;;;7367211;19;20099;-68
2023/06/05 05:20:07;;;;;;;3.85;1.80;;;;;;;;;;7372041;19;20002;-70
2023/06/05 05:22:33;;;;;;;3.25;1.70;;;;;;;;;;7396442;19;20090;-69
2023/06/05 05:24:58;;;;;;;3.13;2.03;;;;;;;;;;7370340;19;20015;-68
2023/06/05 05:27:24;;;;;;;3.47;1.90;;;;;;;;;;7364793;19;20401;-68
2023/06/05 05:29:49;;;;;;;5.93;1.88;;;;;;;;;;7364178;19;20038;-68
2023/06/05 05:32:15;;;;;;;3.58;1.85;;;;;;;;;;7367160;19;20030;-69
2023/06/05 05:34:40;;;;;;;6.70;1.80;;;;;;;;;;7388940;19;20002;-69
2023/06/05 05:37:06;;;;;;;4.43;1.80;;;;;;;;;;7361101;19;20026;-71
2023/06/05 05:39:31;;;;;;;5.60;1.90;;;;;;;;;;7365330;19;20128;-72
2023/06/05 05:41:56;;;;;;;3.33;1.60;;;;;;;;;;7365909;19;20048;-71
2023/06/05 05:44:21;;;;;;;4.05;1.90;;;;;;;;;;7366453;19;20006;-69
2023/06/05 05:46:50;;;;;;;3.85;1.75;;;;;;;;;;7386697;19;20003;-70
2023/06/05 05:49:15;;;;;;;8.60;2.47;;;;;;;;;;7366393;19;20003;-70
2023/06/05 05:51:40;;;;;;;5.30;1.88;;;;;;;;;;7365394;19;20010;-70
2023/06/05 05:54:06;;;;;;;4.63;2.00;;;;;;;;;;7366451;19;20012;-73
2023/06/05 05:56:33;;;;;;;4.13;1.90;;;;;;;;;;7367347;19;20011;-72
2023/06/05 05:58:58;;;;;;;5.18;2.00;;;;;;;;;;7387755;19;20013;-72
2023/06/05 06:01:24;;;;;;;4.63;2.03;;;;;;;;;;7366625;19;20465;-71
2023/06/05 06:03:49;;;;;;;4.93;1.73;;;;;;;;;;7370730;19;20020;-73
2023/06/05 06:06:15;;;;;;;4.50;1.88;;;;;;;;;;7367563;19;20042;-73
2023/06/05 06:08:40;;;;;;;5.57;2.00;;;;;;;;;;7365308;19;20003;-72
2023/06/05 06:11:06;;;;;;;5.10;1.90;;;;;;;;;;7362773;19;20014;-71
2023/06/05 06:13:33;;;;;;;3.80;1.80;;;;;;;;;;7388352;19;20003;-72
2023/06/05 06:15:59;;;;;;;3.10;1.63;;;;;;;;;;7364459;19;20013;-72
2023/06/05 06:18:25;;;;;;;7.72;2.10;;;;;;;;;;7361883;19;20413;-73
2023/06/05 06:20:50;;;;;;;2.83;1.70;;;;;;;;;;7364050;19;20014;-72
2023/06/05 06:23:15;;;;;;;5.68;2.13;;;;;;;;;;7364929;19;20548;-72
2023/06/05 06:25:41;;;;;;;3.85;1.90;;;;;;;;;;7392891;19;19995;-73
2023/06/05 06:28:06;;;;;;;4.50;1.90;;;;;;;;;;7366134;19;20022;-72
2023/06/05 06:30:31;;;;;;;3.92;1.83;;;;;;;;;;7371076;19;20002;-72
2023/06/05 06:33:00;;;;;;;2.85;1.70;;;;;;;;;;7370320;19;20496;-71
2023/06/05 06:35:25;;;;;;;7.75;2.10;;;;;;;;;;7372114;19;20513;-71
2023/06/05 06:37:54;;;;;;;5.45;1.85;;;;;;;;;;7389505;19;20006;-72
2023/06/05 06:40:20;;;;;;;4.03;1.80;;;;;;;;;;7370222;19;20007;-71
2023/06/05 06:42:46;;;;;;;7.00;1.80;;;;;;;;;;7371644;19;20078;-72
2023/06/05 06:45:11;;;;;;;5.63;1.80;;;;;;;;;;7371072;19;20031;-71
2023/06/05 06:47:36;;;;;;;3.20;1.60;;;;;;;;;;7370204;19;20010;-71
2023/06/05 06:50:02;;;;;;;3.67;1.80;;;;;;;;;;7369285;19;20016;-72
2023/06/05 06:52:27;;;;;;;4.70;1.98;;;;;;;;;;7392179;19;20545;-70
2023/06/05 06:54:52;;;;;;;5.88;1.75;;;;;;;;;;7370258;19;20027;-72
2023/06/05 06:57:18;;;;;;;7.82;2.15;;;;;;;;;;7368884;19;20018;-70
2023/06/05 06:59:44;;;;;;;3.20;1.90;;;;;;;;;;7371675;19;20516;-71
2023/06/05 07:02:17;;;;;;;5.60;1.92;;;;;;;;;;7371053;19;20011;-71
2023/06/05 07:04:43;;;;;;;3.05;1.77;;;;;;;;;;7394301;19;20003;-72
2023/06/05 07:07:11;;;;;;;4.88;1.90;;;;;;;;;;7368139;19;20015;-72
2023/06/05 07:09:36;;;;;;;4.22;1.90;;;;;;;;;;7368064;19;20330;-71
2023/06/05 07:12:05;;;;;;;4.82;2.00;;;;;;;;;;7368621;19;20031;-70
2023/06/05 07:14:31;;;;;;;6.00;1.90;;;;;;;;;;7369378;19;20445;-72
2023/06/05 07:16:58;;;;;;;4.57;2.08;;;;;;;;;;7391323;19;20023;-73
2023/06/05 07:19:24;;;;;;;4.20;2.00;;;;;;;;;;7368706;19;20010;-73
2023/06/05 07:21:50;;;;;;;7.07;1.88;;;;;;;;;;7369333;19;20483;-73
2023/06/05 07:24:18;;;;;;;5.07;1.70;;;;;;;;;;7369555;19;20007;-74
2023/06/05 07:26:43;;;;;;;3.13;1.80;;;;;;;;;;7366977;19;20018;-73
2023/06/05 07:29:10;;;;;;;3.47;1.88;;;;;;;;;;7369099;19;20003;-73
2023/06/05 07:31:36;;;;;;;11.32;1.80;;;;;;;;;;7391973;19;20007;-73
2023/06/05 07:34:02;;;;;;;3.85;2.00;;;;;;;;;;7368129;19;20007;-73
2023/06/05 07:36:28;;;;;;;6.10;1.90;;;;;;;;;;7366875;19;20019;-73
2023/06/05 07:38:53;;;;;;;4.90;1.90;;;;;;;;;;7368965;19;20494;-75
2023/06/05 07:41:20;;;;;;;5.10;1.77;;;;;;;;;;7368606;19;20012;-70
2023/06/05 07:43:45;;;;;;;4.85;1.85;;;;;;;;;;7391108;19;20708;-70
2023/06/05 07:46:11;;;;;;;4.38;2.00;;;;;;;;;;7366502;19;20104;-70
2023/06/05 07:48:37;;;;;;;7.32;2.42;;;;;;;;;;7367623;19;20422;-74
2023/06/05 07:51:03;;;;;;;9.00;1.90;;;;;;;;;;7368150;19;20007;-70
2023/06/05 07:53:28;;;;;;;3.35;1.90;;;;;;;;;;7368528;19;20030;-71
2023/06/05 07:55:54;;;;;;;4.15;2.00;;;;;;;;;;7390436;19;20002;-73
2023/06/05 07:58:19;;;;;;;2.90;1.83;;;;;;;;;;7367346;19;20010;-69
2023/06/05 08:00:47;;;;;;;3.70;2.00;;;;;;;;;;7370525;19;20014;-73
2023/06/05 08:03:19;;;;;;;3.60;1.92;;;;;;;;;;7369688;19;20042;-71
2023/06/05 08:05:51;;;;;;;6.03;2.03;;;;;;;;;;7368243;19;20560;-73
2023/06/05 08:08:17;;;;;;;3.67;2.00;;;;;;;;;;7367464;19;20006;-73
2023/06/05 08:10:43;;;;;;;3.95;2.05;;;;;;;;;;7390807;19;20427;-75
2023/06/05 08:13:09;;;;;;;4.85;2.10;;;;;;;;;;7369881;19;20081;-72
2023/06/05 08:15:35;;;;;;;7.72;2.03;;;;;;;;;;7375290;19;20010;-69
2023/06/05 08:18:01;;;;;;;2.38;1.60;;;;;;;;;;7369576;19;20017;-74
2023/06/05 08:20:26;;;;;;;3.38;2.00;;;;;;;;;;7372601;19;20029;-75
2023/06/05 08:22:51;;;;;;;4.43;1.70;;;;;;;;;;7392748;19;20011;-74
2023/06/05 08:25:17;;;;;;;4.78;1.90;;;;;;;;;;7370467;19;20028;-69
2023/06/05 08:27:42;;;;;;;5.20;1.93;;;;;;;;;;7365786;19;20010;-70
2023/06/05 08:30:08;;;;;;;5.53;1.77;;;;;;;;;;7367764;19;20259;-70
2023/06/05 08:32:33;;;;;;;3.53;1.77;;;;;;;;;;7366617;19;20358;-70
2023/06/05 08:34:59;;;;;;;7.13;2.00;;;;;;;;;;7389276;19;20023;-70
2023/06/05 08:37:25;;;;;;;4.93;1.90;;;;;;;;;;7366853;19;20454;-70
2023/06/05 08:39:50;;;;;;;4.18;1.90;;;;;;;;;;7369383;19;20009;-70
2023/06/05 08:42:18;;;;;;;7.32;2.08;;;;;;;;;;7368475;19;20014;-70
2023/06/05 08:44:47;;;;;;;4.75;1.98;;;;;;;;;;7369284;19;20028;-70
2023/06/05 08:47:14;;;;;;;4.70;1.75;;;;;;;;;;7365755;19;20019;-70
2023/06/05 08:49:41;;;;;;;3.55;1.75;;;;;;;;;;7388673;19;20122;-70
2023/06/05 08:52:08;;;;;;;3.33;2.00;;;;;;;;;;7365907;19;20022;-70
2023/06/05 08:54:39;;;;;;;6.35;1.80;;;;;;;;;;7366904;19;20027;-70
2023/06/05 08:57:06;;;;;;;5.47;2.10;;;;;;;;;;7367346;19;19998;-70
2023/06/05 08:59:32;;;;;;;3.75;1.98;;;;;;;;;;7367500;19;20021;-71
2023/06/05 09:01:58;;;;;;;4.03;2.20;;;;;;;;;;7390098;19;20011;-70
2023/06/05 09:04:25;;;;;;;3.67;1.80;;;;;;;;;;7367208;19;20021;-70
2023/06/05 09:06:54;;;;;;;4.15;1.98;;;;;;;;;;7366056;19;20007;-70
2023/06/05 09:09:20;;;;;;;6.30;2.20;;;;;;;;;;7366854;19;20014;-70
2023/06/05 09:11:45;;;;;;;5.90;2.25;;;;;;;;;;7366191;19;20013;-70
2023/06/05 09:14:11;;;;;;;5.20;1.95;;;;;;;;;;7366991;19;20476;-70
2023/06/05 09:16:43;;;;;;;7.97;2.10;;;;;;;;;;7385529;19;20018;-70
2023/06/05 09:19:13;;;;;;;2.97;1.75;;;;;;;;;;7365288;19;20007;-70
2023/06/05 09:21:39;;;;;;;10.73;2.53;;;;;;;;;;7363948;19;20119;-70
2023/06/05 09:24:21;;;;;;;5.32;2.00;;;;;;;;;;7367556;19;20013;-70
2023/06/05 09:26:56;;;;;;;6.97;2.30;;;;;;;;;;7364515;19;20002;-70
2023/06/05 09:29:36;;;;;;;4.03;1.88;;;;;;;;;;7367490;19;20014;-69
2023/06/05 09:32:14;;;;;;;3.72;2.15;;;;;;;;;;7366668;19;20005;-70
2023/06/05 09:34:40;;;;;;;5.45;2.00;;;;;;;;;;7384341;19;20007;-71
2023/06/05 09:37:07;;;;;;;8.73;2.35;;;;;;;;;;7366012;19;20009;-72
2023/06/05 09:39:35;;;;;;;6.22;2.15;;;;;;;;;;7366184;19;20013;-73
2023/06/05 09:42:01;;;;;;;8.63;2.40;;;;;;;;;;7367630;19;20858;-69
2023/06/05 09:44:28;;;;;;;5.13;2.47;;;;;;;;;;7367059;19;20017;-72
2023/06/05 09:46:58;;;;;;;8.82;2.13;;;;;;;;;;7387347;19;20011;-72
2023/06/05 09:49:24;;;;;;;;;;;;;;;;;;7366359;19;20009;-72
2023/06/05 09:51:50;;;;;;;3.92;1.88;;;;;;;;;;7363281;19;19923;-73
2023/06/05 09:54:16;;;;;;;4.90;2.03;;;;;;;;;;7365821;19;20010;-74
2023/06/05 09:56:43;;;;;;;4.80;2.30;;;;;;;;;;7368166;19;20007;-74
2023/06/05 09:59:09;;;;;;;4.82;1.90;;;;;;;;;;7370227;19;20040;-69
2023/06/05 10:01:36;;;;;;;7.00;2.63;;;;;;;;;;7399631;19;20006;-63
2023/06/05 10:04:11;;;;;;;7.03;2.25;;;;;;;;;;7374861;19;19998;-65
2023/06/05 10:06:37;;;;;;;7.75;2.63;;;;;;;;;;7372846;19;20470;-67
2023/06/05 10:09:03;;;;;;;4.00;2.22;;;;;;;;;;7370838;19;20038;-68
2023/06/05 10:11:29;;;;;;;8.32;2.10;;;;;;;;;;7369283;19;20007;-64
2023/06/05 10:13:59;;;;;;;5.45;3.03;;;;;;;;;;7392627;19;20013;-71
2023/06/05 10:16:26;;;;;;;6.72;2.45;;;;;;;;;;7369811;19;20352;-73
2023/06/05 10:18:51;;;;;;;9.25;2.40;;;;;;;;;;7368936;19;20046;-66
2023/06/05 10:21:18;;;;;;;7.18;2.50;;;;;;;;;;7370375;19;20014;-67
2023/06/05 10:23:47;;;;;;;8.85;2.25;;;;;;;;;;7370986;19;20014;-67
2023/06/05 10:26:39;;;;;;;4.47;2.10;;;;;;;;;;7369372;19;20082;-71
2023/06/05 10:29:17;;;;;;;4.28;2.00;;;;;;;;;;7370943;19;20476;-66
2023/06/05 10:31:48;;;;;;;4.50;2.40;;;;;;;;;;7392791;19;20031;-67
2023/06/05 10:34:32;;;;;;;4.90;2.15;;;;;;;;;;7370342;19;20375;-69
2023/06/05 10:37:21;;;;;;;4.35;2.00;;;;;;;;;;7369390;19;20018;-69
2023/06/05 10:39:51;;;;;;;5.05;2.33;;;;;;;;;;7367962;19;20433;-65
2023/06/05 10:42:26;;;;;;;3.45;1.92;;;;;;;;;;7371253;19;20022;-66
2023/06/05 10:44:52;;;;;;;4.65;2.03;;;;;;;;;;7372061;19;20010;-68
2023/06/05 10:47:32;;;;;;;3.90;2.15;;;;;;;;;;7372044;19;20472;-69
2023/06/05 10:50:19;;;;;;;4.38;2.03;;;;;;;;;;7392336;19;20013;-67
2023/06/05 10:52:49;;;;;;;4.25;2.17;;;;;;;;;;7372344;19;20876;-67
2023/06/05 10:55:15;;;;;;;7.43;2.20;;;;;;;;;;7370420;19;20477;-66
2023/06/05 10:58:09;;;;;;;3.22;2.10;;;;;;;;;;7370357;19;20473;-69
2023/06/05 11:00:35;;;;;;;4.72;2.08;;;;;;;;;;7370879;19;20010;-66
2023/06/05 11:03:01;;;;;;;5.35;2.33;;;;;;;;;;7370921;19;20021;-68
2023/06/05 11:05:27;;;;;;;3.97;1.85;;;;;;;;;;7369125;19;20500;-64
2023/06/05 11:08:15;;;;;;;4.65;1.88;;;;;;;;;;7387560;19;20018;-63
2023/06/05 11:11:03;;;;;;;4.78;2.10;;;;;;;;;;7366970;19;20023;-64
2023/06/05 11:13:51;;;;;;;6.88;2.20;;;;;;;;;;7365820;19;20006;-64
2023/06/05 11:16:36;;;;;;;3.25;1.85;;;;;;;;;;7365519;19;20410;-64
2023/06/05 11:19:22;;;;;;;5.55;2.17;;;;;;;;;;7366043;19;20003;-62
2023/06/05 11:22:09;;;;;;;2.35;1.73;;;;;;;;;;7370185;19;20011;-64
2023/06/05 11:24:36;;;;;;;4.20;1.95;;;;;;;;;;7370119;19;20018;-67
2023/06/05 11:27:03;;;;;;;6.00;2.35;;;;;;;;;;7362524;19;20010;-70
2023/06/05 11:29:29;;;;;;;3.72;1.95;;;;;;;;;;7369698;19;20045;-68
2023/06/05 11:31:55;;;;;;;8.27;2.38;;;;;;;;;;7392480;19;20003;-70
2023/06/05 11:34:20;;;;;;;7.72;2.15;;;;;;;;;;7369554;19;20020;-71
2023/06/05 11:36:46;;;;;;;9.40;2.20;;;;;;;;;;7372266;19;20081;-72
2023/06/05 11:39:12;;;;;;;3.50;2.13;;;;;;;;;;7372985;19;20427;-69
2023/06/05 11:41:45;;;;;;;6.35;2.15;;;;;;;;;;7370565;19;20043;-67
2023/06/05 11:44:11;;;;;;;8.43;2.03;;;;;;;;;;7369868;19;20022;-67
2023/06/05 11:46:41;;;;;;;3.78;2.13;;;;;;;;;;7389119;19;20010;-68
2023/06/05 11:49:07;;;;;;;;;;;;;;;;;;7369130;19;20881;-67
2023/06/05 11:51:36;;;;;;;4.60;2.10;;;;;;;;;;7367639;19;19919;-71
2023/06/05 11:54:02;;;;;;;4.87;2.13;;;;;;;;;;7369228;19;20010;-70
2023/06/05 11:56:29;;;;;;;4.93;1.90;;;;;;;;;;7366925;19;20020;-70
2023/06/05 11:58:54;;;;;;;6.47;2.35;;;;;;;;;;7390286;19;20007;-69
2023/06/05 12:01:25;;;;;;;8.48;2.47;;;;;;;;;;7366847;19;20038;-72
2023/06/05 12:04:06;;;;;;;5.50;2.05;;;;;;;;;;7370048;19;20011;-72
2023/06/05 12:06:33;;;;;;;4.80;2.30;;;;;;;;;;7366679;19;20018;-68
2023/06/05 12:09:11;;;;;;;4.07;2.17;;;;;;;;;;7365417;19;20048;-70
2023/06/05 12:11:38;;;;;;;4.82;2.30;;;;;;;;;;7369271;19;20504;-74
2023/06/05 12:14:03;;;;;;;3.33;1.98;;;;;;;;;;7370962;19;20009;-67
2023/06/05 12:16:34;;;;;;;5.68;2.38;;;;;;;;;;7391737;19;20010;-68
2023/06/05 12:19:00;;;;;;;4.28;2.00;;;;;;;;;;7365721;19;20106;-67
2023/06/05 12:21:27;;;;;;;11.93;2.42;;;;;;;;;;7365919;19;20006;-74
2023/06/05 12:24:01;;;;;;;5.10;2.20;;;;;;;;;;7368974;19;20006;-67
2023/06/05 12:26:30;;;;;;;6.85;2.13;;;;;;;;;;7366814;19;20119;-69
2023/06/05 12:29:07;;;;;;;5.47;2.22;;;;;;;;;;7390641;19;20006;-69
2023/06/05 12:31:36;;;;;;;5.35;2.20;;;;;;;;;;7372224;19;20417;-68
2023/06/05 12:34:03;;;;;;;8.30;2.60;;;;;;;;;;7373405;19;20370;-73
2023/06/05 12:36:29;;;;;;;10.85;2.83;;;;;;;;;;7367742;19;20393;-68
2023/06/05 12:38:55;;;;;;;7.90;2.28;;;;;;;;;;7365233;19;20010;-68
2023/06/05 12:41:20;;;;;;;3.53;2.47;;;;;;;;;;7367291;19;20007;-71
2023/06/05 12:43:45;;;;;;;6.95;2.22;;;;;;;;;;7390181;19;20539;-69
2023/06/05 12:46:13;;;;;;;5.95;2.10;;;;;;;;;;7365177;19;20745;-67
2023/06/05 12:48:38;;;;;;;6.20;2.17;;;;;;;;;;7365354;19;20473;-72
2023/06/05 12:51:04;;;;;;;6.22;2.58;;;;;;;;;;7365906;19;20031;-69
2023/06/05 12:53:30;;;;;;;5.90;2.08;;;;;;;;;;7368166;19;20022;-71
2023/06/05 12:55:56;;;;;;;3.38;2.03;;;;;;;;;;7388357;19;20014;-72
2023/06/05 12:58:21;;;;;;;7.47;2.20;;;;;;;;;;7362502;19;20371;-74
2023/06/05 13:00:47;;;;;;;4.00;2.22;;;;;;;;;;7365721;19;20010;-73
2023/06/05 13:03:12;;;;;;;2.83;1.60;;;;;;;;;;7364699;19;20015;-66
2023/06/05 13:05:38;;;;;;;5.18;2.20;;;;;;;;;;7365666;19;20548;-65
2023/06/05 13:08:03;;;;;;;5.05;2.03;;;;;;;;;;7363793;19;20010;-67
2023/06/05 13:10:29;;;;;;;6.20;2.17;;;;;;;;;;7386517;19;20042;-65
2023/06/05 13:12:54;;;;;;;9.10;2.15;;;;;;;;;;7363909;19;20027;-68
2023/06/05 13:15:20;;;;;;;12.50;2.20;;;;;;;;;;7365034;19;20006;-66
2023/06/05 13:17:46;;;;;;;7.30;2.28;;;;;;;;;;7364612;19;20010;-66
2023/06/05 13:20:12;;;;;;;4.60;2.30;;;;;;;;;;7362159;19;20010;-67
2023/06/05 13:22:38;;;;;;;6.78;2.08;;;;;;;;;;7387517;19;20509;-67
2023/06/05 13:25:06;;;;;;;4.30;2.20;;;;;;;;;;7364850;19;20513;-66
2023/06/05 13:27:32;;;;;;;6.10;2.35;;;;;;;;;;7363325;19;20019;-66
2023/06/05 13:29:57;;;;;;;3.75;2.08;;;;;;;;;;7362269;19;20501;-65
2023/06/05 13:32:22;;;;;;;3.95;2.30;;;;;;;;;;7364393;19;20350;-66
2023/06/05 13:34:48;;;;;;;5.78;2.08;;;;;;;;;;7390714;19;20477;-64
2023/06/05 13:37:13;;;;;;;5.88;2.15;;;;;;;;;;7364537;19;20002;-66
2023/06/05 13:39:38;;;;;;;4.53;2.20;;;;;;;;;;7370329;19;20553;-64
2023/06/05 13:42:04;;;;;;;5.25;2.15;;;;;;;;;;7371490;19;20028;-66
2023/06/05 13:44:30;;;;;;;5.22;2.00;;;;;;;;;;7367848;19;20023;-65
2023/06/05 13:46:55;;;;;;;5.38;2.20;;;;;;;;;;7389266;19;20013;-64
2023/06/05 13:49:21;;;;;;;5.28;2.20;;;;;;;;;;7366364;19;20027;-64
2023/06/05 13:51:46;;;;;;;8.10;2.10;;;;;;;;;;7365861;19;20014;-64
2023/06/05 13:54:12;;;;;;;4.20;2.08;;;;;;;;;;7366058;19;20011;-65
2023/06/05 13:56:37;;;;;;;6.80;2.23;;;;;;;;;;7368059;19;20014;-64
2023/06/05 13:59:02;;;;;;;6.35;2.20;;;;;;;;;;7368838;19;20777;-65
2023/06/05 14:01:28;;;;;;;5.00;2.30;;;;;;;;;;7388733;19;20007;-66
2023/06/05 14:03:53;;;;;;;2.97;1.75;;;;;;;;;;7367288;19;20010;-65
2023/06/05 14:06:19;;;;;;;3.38;1.98;;;;;;;;;;7370607;19;20050;-65
2023/06/05 14:08:45;;;;;;;5.45;2.00;;;;;;;;;;7367427;19;20070;-64
2023/06/05 14:11:10;;;;;;;3.60;2.13;;;;;;;;;;7369124;19;20011;-65
2023/06/05 14:13:36;;;;;;;5.07;2.00;;;;;;;;;;7392645;19;20007;-65
2023/06/05 14:16:03;;;;;;;7.97;2.17;;;;;;;;;;7373788;19;20010;-66
2023/06/05 14:18:29;;;;;;;5.68;2.40;;;;;;;;;;7371540;19;20078;-65
2023/06/05 14:20:55;;;;;;;10.68;2.42;;;;;;;;;;7372535;19;20039;-65
2023/06/05 14:23:22;;;;;;;6.82;2.42;;;;;;;;;;7372356;19;20035;-66
2023/06/05 14:25:48;;;;;;;5.95;2.30;;;;;;;;;;7391801;19;20379;-65
2023/06/05 14:28:14;;;;;;;10.48;2.45;;;;;;;;;;7365462;19;20006;-65
2023/06/05 14:30:40;;;;;;;4.53;2.30;;;;;;;;;;7368186;19;20341;-65
2023/06/05 14:33:05;;;;;;;5.60;2.17;;;;;;;;;;7369560;19;20030;-62
2023/06/05 14:35:30;;;;;;;4.95;2.40;;;;;;;;;;7371270;19;20046;-60
2023/06/05 14:37:56;;;;;;;3.60;2.10;;;;;;;;;;7393060;19;20006;-61
2023/06/05 14:40:21;;;;;;;4.65;2.80;;;;;;;;;;7370754;19;20014;-70
2023/06/05 14:42:48;;;;;;;5.93;2.10;;;;;;;;;;7370453;19;20078;-69
2023/06/05 14:45:14;;;;;;;4.95;2.20;;;;;;;;;;7367541;19;20338;-70